This is the latest recevied weather packets stored in our database for station/object WD7OO. If no packets are shown the sender has not sent any weather packets the latest 10 day(s).
| Time | Temp. | Humidity | Pressure | Rain* | Wind** | Luminosity | Snow |
|---|---|---|---|---|---|---|---|
| 1788543429 | 23.33° C | 99% | 1017.2 hPa | 1.27 mm | - | 633 W/m² | - |
| 1788543124 | 23.33° C | 98% | 1017.3 hPa | 1.27 mm | - | 210 W/m² | - |
| 1788542820 | 23.33° C | 97% | 1017.9 hPa | 0 mm | - | 123 W/m² | - |
| 1788542519 | 23.33° C | 96% | 1018.2 hPa | 9.65 mm | - | 89 W/m² | - |
| 1788542215 | 24.44° C | 93% | 1018.5 hPa | 26.42 mm | - | 93 W/m² | - |
| 1788541915 | 25.56° C | 87% | 1018.9 hPa | 15.49 mm | - | 64 W/m² | - |
| 1788541611 | 26.11° C | 80% | 1019.8 hPa | 0 mm | - | 29 W/m² | - |
| 1788541307 | 26.67° C | 79% | 1019.8 hPa | 0 mm | - | 16 W/m² | - |
| 1788541005 | 27.22° C | 77% | 1018.5 hPa | 0 mm | - | 118 W/m² | - |
| 1788540704 | 27.22° C | 74% | 1017.8 hPa | 0 mm | - | 286 W/m² | - |
| 1788540400 | 27.22° C | 74% | 1017.7 hPa | 0 mm | - | 346 W/m² | - |
| 1788540095 | 27.78° C | 76% | 1017.7 hPa | 0 mm | - | 331 W/m² | - |
| 1788539791 | 27.78° C | 75% | 1017.3 hPa | 0 mm | - | 363 W/m² | - |
| 1788539486 | 27.78° C | 73% | 1017.1 hPa | 0 mm | - | 383 W/m² | - |
| 1788539186 | 28.33° C | 72% | 1017 hPa | 0 mm | - | 686 W/m² | - |
| 1788538880 | 28.33° C | 73% | 1017.2 hPa | 0 mm | - | 757 W/m² | - |
| 1788538576 | 28.33° C | 74% | 1017.3 hPa | 0 mm | - | 749 W/m² | - |
| 1788538271 | 27.78° C | 74% | 1017.2 hPa | 0 mm | - | 725 W/m² | - |
| 1788537966 | 27.78° C | 74% | 1017.2 hPa | 0 mm | - | 725 W/m² | - |
| 1788537662 | 27.78° C | 75% | 1017.4 hPa | 0 mm | - | 718 W/m² | - |
| 1788537356 | 27.78° C | 76% | 1017.5 hPa | 0 mm | - | 686 W/m² | - |
| 1788537050 | 27.78° C | 76% | 1017.5 hPa | 0 mm | - | 694 W/m² | - |
| 1788536747 | 27.22° C | 77% | 1017.8 hPa | 0 mm | - | 684 W/m² | - |
| 1788536439 | 26.67° C | 79% | 1017.8 hPa | 0 mm | - | 671 W/m² | - |
| 1788536138 | 27.22° C | 80% | 1017.8 hPa | 0 mm | - | 665 W/m² | - |
* Rain latest hour (hover to see other rain measurements)
** Current wind speed in m/s (hover to see current wind gust speed)